createdAt,value
2018-06-22T00:02:25.337Z,13.30
2018-06-22T00:04:54.186Z,13.30
2018-06-22T00:07:23.003Z,13.30
2018-06-22T00:09:52.043Z,13.20
2018-06-22T00:12:20.840Z,13.20
2018-06-22T00:14:49.612Z,13.10
2018-06-22T00:17:18.524Z,13.00
2018-06-22T00:19:47.416Z,13.00
2018-06-22T00:22:16.214Z,12.90
2018-06-22T00:24:45.056Z,12.90
2018-06-22T00:27:13.866Z,12.80
2018-06-22T00:29:42.770Z,12.80
2018-06-22T00:32:11.462Z,12.70
2018-06-22T00:34:40.308Z,12.70
2018-06-22T00:37:09.154Z,12.70
2018-06-22T00:39:37.948Z,12.60
2018-06-22T00:42:06.812Z,12.70
2018-06-22T00:44:35.550Z,12.70
2018-06-22T00:47:04.357Z,12.70
2018-06-22T00:49:33.196Z,12.60
2018-06-22T00:52:02.099Z,12.60
2018-06-22T00:54:30.864Z,12.60
2018-06-22T00:56:59.786Z,12.60
2018-06-22T00:59:28.532Z,12.60
2018-06-22T01:01:57.317Z,12.60
2018-06-22T01:04:26.346Z,12.50
2018-06-22T01:06:55.158Z,12.50
2018-06-22T01:09:23.974Z,12.40
2018-06-22T01:11:52.706Z,12.40
2018-06-22T01:14:21.573Z,12.30
2018-06-22T01:16:50.374Z,12.30
2018-06-22T01:19:19.175Z,12.20
2018-06-22T01:21:48.196Z,12.20
2018-06-22T01:24:16.985Z,12.10
2018-06-22T01:26:45.953Z,12.10
2018-06-22T01:29:19.978Z,12.10
2018-06-22T01:31:48.850Z,12.00
2018-06-22T01:34:17.747Z,12.00
2018-06-22T01:36:46.548Z,12.00
2018-06-22T01:39:15.294Z,12.00
2018-06-22T01:41:44.087Z,11.90
2018-06-22T01:44:12.930Z,11.90
2018-06-22T01:46:41.983Z,11.80
2018-06-22T01:49:10.861Z,11.80
2018-06-22T01:51:39.658Z,11.80
2018-06-22T01:54:08.500Z,11.80
2018-06-22T01:56:37.390Z,11.80
2018-06-22T01:59:06.129Z,11.80
2018-06-22T02:01:34.763Z,11.70
2018-06-22T02:04:03.260Z,11.70
2018-06-22T02:06:31.830Z,11.70
2018-06-22T02:09:00.354Z,11.70
2018-06-22T02:11:28.877Z,11.70
2018-06-22T02:13:57.517Z,11.60
2018-06-22T02:16:26.003Z,11.60
2018-06-22T02:18:54.667Z,11.50
2018-06-22T02:21:23.186Z,11.50
2018-06-22T02:23:51.755Z,11.50
2018-06-22T02:26:20.261Z,11.40
2018-06-22T02:28:48.760Z,11.40
2018-06-22T02:31:17.369Z,11.40
2018-06-22T02:33:46.665Z,11.30
2018-06-22T02:36:15.568Z,11.30
2018-06-22T02:38:44.543Z,11.30
2018-06-22T02:41:13.321Z,11.20
2018-06-22T02:43:42.207Z,11.10
2018-06-22T02:46:11.039Z,11.10
2018-06-22T02:48:39.958Z,11.00
2018-06-22T02:51:08.841Z,11.00
2018-06-22T02:53:37.875Z,10.90
2018-06-22T02:56:06.722Z,10.80
2018-06-22T02:58:35.713Z,10.80
2018-06-22T03:01:04.748Z,10.70
2018-06-22T03:03:33.583Z,10.70
2018-06-22T03:06:02.561Z,10.70
2018-06-22T03:11:05.632Z,10.60
2018-06-22T03:13:34.657Z,10.50
2018-06-22T03:16:03.526Z,10.50
2018-06-22T03:18:32.317Z,10.50
2018-06-22T03:21:01.274Z,10.40
2018-06-22T03:23:30.107Z,10.40
2018-06-22T03:25:58.963Z,10.40
2018-06-22T03:28:27.654Z,10.40
2018-06-22T03:30:56.767Z,10.40
2018-06-22T03:33:25.551Z,10.40
2018-06-22T03:35:54.339Z,10.40
2018-06-22T03:38:23.211Z,10.40
2018-06-22T03:40:52.035Z,10.40
2018-06-22T03:43:20.922Z,10.40
2018-06-22T03:45:49.843Z,10.40
2018-06-22T03:48:18.696Z,10.40
2018-06-22T03:50:54.402Z,10.40
2018-06-22T03:53:23.267Z,10.40
2018-06-22T03:55:52.073Z,10.40
2018-06-22T03:58:20.898Z,10.40
2018-06-22T04:00:49.894Z,10.50
2018-06-22T04:03:18.905Z,10.50
2018-06-22T04:05:47.803Z,10.60
2018-06-22T04:08:16.648Z,10.60
2018-06-22T04:10:45.423Z,10.60
2018-06-22T04:13:14.139Z,10.70
2018-06-22T04:15:42.958Z,10.70
2018-06-22T04:18:11.684Z,10.70
2018-06-22T04:20:40.653Z,10.80
2018-06-22T04:23:09.509Z,10.80
2018-06-22T04:25:38.297Z,10.80
2018-06-22T04:28:07.102Z,10.90
2018-06-22T04:30:36.110Z,11.00
2018-06-22T04:33:04.995Z,11.10
2018-06-22T04:38:02.345Z,11.10
2018-06-22T04:40:31.155Z,11.10
2018-06-22T04:42:59.951Z,11.00
2018-06-22T04:45:28.787Z,11.00
2018-06-22T04:47:57.604Z,11.10
2018-06-22T04:50:26.663Z,11.50
2018-06-22T04:52:55.399Z,12.50
2018-06-22T04:55:24.194Z,13.50
2018-06-22T04:57:52.955Z,14.50
2018-06-22T05:00:21.851Z,14.70
2018-06-22T05:03:01.512Z,14.90
2018-06-22T05:05:30.406Z,15.00
2018-06-22T05:07:59.269Z,15.00
2018-06-22T05:10:28.099Z,15.40
2018-06-22T05:12:56.919Z,15.90
2018-06-22T05:15:25.763Z,16.40
2018-06-22T05:17:54.531Z,16.80
2018-06-22T05:20:23.401Z,17.10
2018-06-22T05:22:52.357Z,17.80
2018-06-22T05:25:21.279Z,18.10
2018-06-22T05:27:50.251Z,18.20
2018-06-22T05:30:19.468Z,18.30
2018-06-22T05:32:48.361Z,18.50
2018-06-22T05:35:17.201Z,18.10
2018-06-22T05:37:46.001Z,17.90
2018-06-22T05:40:14.917Z,18.50
2018-06-22T05:42:43.754Z,19.30
2018-06-22T05:45:12.779Z,20.10
2018-06-22T05:47:41.593Z,19.90
2018-06-22T05:50:10.373Z,20.20
2018-06-22T05:52:39.193Z,20.90
2018-06-22T05:55:08.078Z,20.50
2018-06-22T05:57:37.137Z,20.60
2018-06-22T06:00:10.171Z,20.20
2018-06-22T06:02:39.172Z,20.50
2018-06-22T06:05:08.121Z,21.20
2018-06-22T06:07:37.860Z,21.90
2018-06-22T06:10:10.247Z,22.70
2018-06-22T06:12:42.301Z,21.80
2018-06-22T06:15:11.125Z,21.80
2018-06-22T06:17:45.995Z,20.60
2018-06-22T06:20:14.797Z,20.00
2018-06-22T06:22:43.819Z,20.00
2018-06-22T06:25:12.587Z,20.40
2018-06-22T06:27:51.469Z,20.10
2018-06-22T06:30:20.433Z,20.60
2018-06-22T06:32:49.363Z,20.30
2018-06-22T06:35:18.297Z,20.10
2018-06-22T06:37:52.487Z,20.50
2018-06-22T06:40:24.635Z,20.50
2018-06-22T06:42:53.510Z,20.20
2018-06-22T06:45:22.323Z,20.70
2018-06-22T06:47:51.208Z,21.60
2018-06-22T06:50:20.076Z,21.70
2018-06-22T06:53:00.833Z,22.20
2018-06-22T06:55:29.969Z,22.70
2018-06-22T06:57:58.740Z,21.80
2018-06-22T07:00:27.494Z,20.80
2018-06-22T07:02:56.254Z,19.30
2018-06-22T07:05:25.174Z,17.80
2018-06-22T07:07:54.410Z,16.80
2018-06-22T07:10:33.311Z,16.20
2018-06-22T07:13:02.661Z,15.70
2018-06-22T07:15:35.688Z,15.90
2018-06-22T07:18:04.560Z,15.90
2018-06-22T07:20:33.702Z,15.60
2018-06-22T07:23:02.694Z,15.90
2018-06-22T07:25:31.674Z,16.20
2018-06-22T07:28:00.712Z,16.10
2018-06-22T07:30:29.623Z,15.80
2018-06-22T07:32:58.443Z,15.60
2018-06-22T07:35:27.206Z,15.30
2018-06-22T07:37:56.156Z,15.00
2018-06-22T07:40:25.001Z,14.80
2018-06-22T07:42:53.944Z,15.10
2018-06-22T07:45:22.730Z,15.60
2018-06-22T07:47:51.680Z,15.70
2018-06-22T07:50:20.470Z,15.60
2018-06-22T07:52:49.332Z,15.80
2018-06-22T07:55:18.195Z,15.70
2018-06-22T07:57:46.949Z,15.40
2018-06-22T08:00:15.810Z,15.50
2018-06-22T08:02:44.962Z,15.70
2018-06-22T08:05:13.714Z,15.70
2018-06-22T08:07:42.534Z,15.50
2018-06-22T08:12:39.816Z,15.60
2018-06-22T08:15:08.580Z,16.40
2018-06-22T08:20:05.986Z,16.10
2018-06-22T08:22:34.819Z,16.00
2018-06-22T08:25:03.684Z,16.20
2018-06-22T08:27:32.562Z,15.90
2018-06-22T08:30:01.432Z,16.00
2018-06-22T08:32:30.308Z,16.00
2018-06-22T08:34:59.285Z,16.20
2018-06-22T08:37:28.090Z,16.30
2018-06-22T08:42:25.262Z,15.70
2018-06-22T08:44:54.172Z,15.70
2018-06-22T08:47:22.926Z,15.80
2018-06-22T08:49:51.852Z,15.80
2018-06-22T08:52:21.049Z,15.60
2018-06-22T08:54:49.808Z,15.50
2018-06-22T08:57:18.687Z,15.30
2018-06-22T08:59:47.492Z,15.40
2018-06-22T09:02:16.314Z,15.40
2018-06-22T09:04:45.193Z,15.40
2018-06-22T09:07:14.502Z,15.50
2018-06-22T09:09:43.295Z,15.50
2018-06-22T09:12:12.068Z,15.40
2018-06-22T09:14:40.864Z,15.30
2018-06-22T09:17:09.734Z,15.50
2018-06-22T09:19:38.580Z,15.70
2018-06-22T09:22:07.680Z,15.40
2018-06-22T09:24:36.554Z,15.20
2018-06-22T09:27:05.324Z,15.30
2018-06-22T09:29:34.044Z,15.30
2018-06-22T09:32:02.894Z,15.60
2018-06-22T09:34:31.748Z,15.70
2018-06-22T09:39:29.078Z,15.40
2018-06-22T09:41:57.922Z,15.30
2018-06-22T09:44:37.629Z,15.00
2018-06-22T09:47:07.035Z,14.60
2018-06-22T09:49:35.922Z,14.30
2018-06-22T09:52:04.708Z,13.90
2018-06-22T09:54:33.624Z,13.70
2018-06-22T09:57:02.422Z,13.50
2018-06-22T09:59:31.266Z,13.50
2018-06-22T10:02:00.027Z,13.50
2018-06-22T10:04:28.837Z,13.30
2018-06-22T10:06:57.674Z,13.40
2018-06-22T10:09:27.056Z,13.40
2018-06-22T10:11:55.889Z,13.40
2018-06-22T10:14:24.672Z,13.50
2018-06-22T10:16:53.407Z,13.70
2018-06-22T10:19:22.268Z,13.90
2018-06-22T10:21:55.370Z,14.50
2018-06-22T10:24:24.187Z,14.90
2018-06-22T10:26:52.946Z,15.20
2018-06-22T10:29:21.962Z,15.40
2018-06-22T10:31:50.792Z,15.50
2018-06-22T10:34:19.664Z,15.40
2018-06-22T10:36:48.740Z,15.20
2018-06-22T10:39:17.729Z,14.90
2018-06-22T10:41:46.559Z,14.60
2018-06-22T10:44:15.504Z,14.60
2018-06-22T10:46:44.339Z,15.00
2018-06-22T10:51:41.793Z,15.50
2018-06-22T10:54:10.566Z,15.60
2018-06-22T10:56:39.791Z,16.10
2018-06-22T11:01:37.496Z,16.30
2018-06-22T11:04:06.920Z,16.50
2018-06-22T11:06:35.760Z,16.40
2018-06-22T11:09:06.620Z,16.40
2018-06-22T11:11:35.696Z,16.20
2018-06-22T11:14:05.076Z,16.30
2018-06-22T11:16:33.848Z,16.40
2018-06-22T11:19:03.150Z,16.40
2018-06-22T11:21:32.020Z,16.40
2018-06-22T11:24:00.953Z,16.20
2018-06-22T11:26:29.754Z,16.00
2018-06-22T11:28:58.674Z,16.20
2018-06-22T11:31:27.382Z,16.10
2018-06-22T11:33:59.707Z,16.20
2018-06-22T11:36:28.589Z,16.10
2018-06-22T11:38:57.506Z,15.80
2018-06-22T11:41:26.347Z,15.70
2018-06-22T11:43:55.151Z,16.00
2018-06-22T11:46:24.021Z,16.30
2018-06-22T11:48:52.854Z,16.20
2018-06-22T11:51:21.929Z,16.80
2018-06-22T11:56:25.874Z,17.50
2018-06-22T11:58:54.795Z,18.20
2018-06-22T12:01:23.767Z,19.40
2018-06-22T12:03:52.637Z,20.50
2018-06-22T12:06:21.525Z,21.60
2018-06-22T12:08:50.299Z,22.30
2018-06-22T12:11:39.417Z,21.40
2018-06-22T12:14:08.223Z,21.40
2018-06-22T12:16:37.327Z,21.60
2018-06-22T12:19:06.457Z,22.10
2018-06-22T12:21:35.213Z,22.90
2018-06-22T12:24:03.997Z,24.00
2018-06-22T12:26:32.955Z,23.20
2018-06-22T12:29:01.838Z,22.40
2018-06-22T12:31:30.668Z,22.40
2018-06-22T12:33:59.700Z,21.50
2018-06-22T12:36:28.533Z,20.20
2018-06-22T12:38:57.329Z,19.00
2018-06-22T12:41:26.341Z,18.10
2018-06-22T12:43:55.234Z,17.70
2018-06-22T12:46:24.123Z,17.70
2018-06-22T12:48:53.261Z,18.20
2018-06-22T12:51:21.985Z,18.20
2018-06-22T12:53:50.943Z,19.70
2018-06-22T12:56:19.736Z,20.70
2018-06-22T12:58:48.585Z,21.30
2018-06-22T13:01:17.403Z,21.30
2018-06-22T13:03:46.505Z,20.10
2018-06-22T13:06:15.432Z,18.90
2018-06-22T13:08:44.452Z,18.20
2018-06-22T13:11:13.471Z,17.80
2018-06-22T13:13:45.833Z,17.40
2018-06-22T13:16:14.791Z,17.20
2018-06-22T13:18:43.618Z,17.20
2018-06-22T13:21:12.451Z,17.90
2018-06-22T13:23:41.517Z,18.40
2018-06-22T13:26:10.288Z,18.50
2018-06-22T13:28:39.156Z,18.00
2018-06-22T13:31:08.144Z,18.40
2018-06-22T13:33:36.967Z,18.80
2018-06-22T13:36:05.787Z,19.00
2018-06-22T13:38:34.677Z,19.70
2018-06-22T13:43:32.234Z,19.50
2018-06-22T13:46:03.275Z,19.10
2018-06-22T13:48:31.955Z,19.00
2018-06-22T13:51:01.217Z,19.10
2018-06-22T13:53:30.071Z,19.30
2018-06-22T13:55:58.898Z,19.80
2018-06-22T13:58:27.821Z,20.00
2018-06-22T14:00:56.648Z,19.60
2018-06-22T14:03:25.447Z,19.10
2018-06-22T14:05:59.722Z,18.30
2018-06-22T14:08:28.487Z,17.50
2018-06-22T14:10:57.405Z,16.70
2018-06-22T14:13:36.687Z,16.10
2018-06-22T14:16:05.997Z,15.50
2018-06-22T14:18:34.769Z,15.00
2018-06-22T14:21:03.597Z,15.20
2018-06-22T14:23:32.428Z,16.60
2018-06-22T14:26:01.301Z,17.60
2018-06-22T14:28:30.042Z,17.60
2018-06-22T14:30:58.921Z,18.20
2018-06-22T14:33:27.769Z,18.90
2018-06-22T14:35:56.703Z,19.20
2018-06-22T14:38:25.525Z,19.70
2018-06-22T14:40:54.377Z,20.00
2018-06-22T14:43:23.166Z,19.60
2018-06-22T14:45:59.482Z,19.10
2018-06-22T14:48:28.344Z,19.20
2018-06-22T14:50:57.238Z,19.30
2018-06-22T14:53:31.369Z,18.80
2018-06-22T14:56:05.439Z,18.30
2018-06-22T14:58:39.578Z,17.80
2018-06-22T15:01:17.138Z,17.30
2018-06-22T15:03:51.299Z,15.90
2018-06-22T15:07:26.122Z,14.80
2018-06-22T15:09:55.113Z,14.40
2018-06-22T15:12:24.003Z,13.90
2018-06-22T15:14:52.823Z,13.90
2018-06-22T15:17:21.689Z,14.30
2018-06-22T15:19:50.685Z,14.90
2018-06-22T15:22:19.549Z,15.40
2018-06-22T15:24:48.705Z,16.10
2018-06-22T15:27:17.648Z,16.50
2018-06-22T15:29:46.497Z,16.40
2018-06-22T15:32:15.294Z,16.50
2018-06-22T15:34:49.205Z,16.50
2018-06-22T15:37:23.251Z,16.60
2018-06-22T15:39:57.430Z,16.60
2018-06-22T15:42:31.330Z,16.60
2018-06-22T15:45:05.457Z,16.70
2018-06-22T15:48:43.276Z,16.70
2018-06-22T15:51:17.187Z,17.00
2018-06-22T15:53:58.632Z,17.00
2018-06-22T15:56:27.757Z,17.00
2018-06-22T15:58:56.830Z,16.80
2018-06-22T16:01:26.084Z,16.90
2018-06-22T16:03:58.212Z,17.00
2018-06-22T16:09:25.856Z,17.20
2018-06-22T16:11:58.830Z,17.20
2018-06-22T16:14:33.538Z,17.30
2018-06-22T16:17:07.657Z,17.20
2018-06-22T16:19:41.767Z,17.30
2018-06-22T16:22:15.772Z,17.50
2018-06-22T16:24:50.095Z,17.70
2018-06-22T16:27:19.124Z,17.80
2018-06-22T16:29:47.978Z,17.90
2018-06-22T16:32:16.964Z,17.90
2018-06-22T16:34:45.750Z,18.20
2018-06-22T16:37:15.046Z,18.40
2018-06-22T16:39:43.791Z,18.40
2018-06-22T16:42:12.670Z,18.10
2018-06-22T16:44:41.489Z,18.10
2018-06-22T16:47:10.376Z,18.20
2018-06-22T16:49:39.183Z,18.30
2018-06-22T16:52:08.080Z,18.40
2018-06-22T16:54:37.021Z,18.20
2018-06-22T16:57:06.189Z,18.00
2018-06-22T16:59:35.242Z,17.90
2018-06-22T17:02:04.153Z,17.50
2018-06-22T17:04:33.008Z,17.30
2018-06-22T17:09:40.961Z,16.90
2018-06-22T17:12:14.959Z,16.70
2018-06-22T17:14:49.345Z,16.60
2018-06-22T17:17:35.636Z,16.50
2018-06-22T17:20:04.508Z,16.50
2018-06-22T17:22:33.315Z,16.50
2018-06-22T17:25:02.384Z,16.50
2018-06-22T17:27:31.263Z,16.30
2018-06-22T17:30:00.269Z,16.40
2018-06-22T17:32:29.188Z,16.40
2018-06-22T17:34:57.933Z,16.40
2018-06-22T17:37:26.829Z,16.40
2018-06-22T17:39:56.012Z,16.50
2018-06-22T17:42:24.829Z,16.40
2018-06-22T17:44:53.675Z,16.40
2018-06-22T17:47:22.606Z,16.50
2018-06-22T17:49:51.507Z,16.40
2018-06-22T17:52:20.417Z,16.50
2018-06-22T17:55:06.821Z,16.50
2018-06-22T17:57:35.736Z,16.60
2018-06-22T18:00:10.269Z,16.70
2018-06-22T18:02:44.244Z,16.60
2018-06-22T18:05:18.210Z,16.60
2018-06-22T18:07:48.847Z,16.50
2018-06-22T18:10:23.071Z,16.60
2018-06-22T18:12:54.796Z,16.50
2018-06-22T18:15:23.750Z,16.50
2018-06-22T18:17:52.702Z,16.40
2018-06-22T18:20:21.644Z,16.30
2018-06-22T18:22:50.598Z,16.20
2018-06-22T18:25:19.305Z,16.20
2018-06-22T18:27:48.786Z,16.10
2018-06-22T18:30:17.767Z,16.10
2018-06-22T18:32:52.450Z,16.10
2018-06-22T18:35:21.420Z,16.10
2018-06-22T18:37:50.426Z,16.00
2018-06-22T18:40:19.294Z,15.90
2018-06-22T18:42:48.032Z,15.80
2018-06-22T18:45:17.192Z,15.80
2018-06-22T18:47:46.346Z,15.70
2018-06-22T18:50:15.156Z,15.70
2018-06-22T18:52:49.404Z,15.60
2018-06-22T18:55:23.694Z,15.50
2018-06-22T18:57:57.909Z,15.40
2018-06-22T19:00:31.876Z,15.30
2018-06-22T19:03:06.021Z,15.30
2018-06-22T19:05:34.936Z,15.20
2018-06-22T19:08:03.809Z,15.20
2018-06-22T19:10:32.764Z,15.10
2018-06-22T19:13:01.736Z,15.10
2018-06-22T19:15:30.595Z,15.00
2018-06-22T19:17:59.382Z,15.00
2018-06-22T19:20:28.574Z,14.90
2018-06-22T19:22:57.457Z,14.90
2018-06-22T19:25:26.366Z,14.90
2018-06-22T19:27:55.129Z,14.80
2018-06-22T19:30:23.876Z,14.80
2018-06-22T19:32:52.732Z,14.80
2018-06-22T19:35:21.648Z,14.80
2018-06-22T19:37:50.603Z,14.70
2018-06-22T19:40:19.473Z,14.80
2018-06-22T19:42:48.872Z,14.70
2018-06-22T19:45:23.074Z,14.70
2018-06-22T19:47:57.233Z,14.70
2018-06-22T19:53:05.171Z,14.70
2018-06-22T19:55:34.034Z,14.60
2018-06-22T19:58:02.901Z,14.50
2018-06-22T20:00:31.689Z,14.50
2018-06-22T20:03:00.702Z,14.50
2018-06-22T20:05:29.540Z,14.50
2018-06-22T20:07:58.368Z,14.40
2018-06-22T20:10:27.386Z,14.40
2018-06-22T20:12:56.482Z,14.40
2018-06-22T20:15:25.942Z,14.50
2018-06-22T20:17:55.767Z,14.40
2018-06-22T20:20:25.074Z,14.40
2018-06-22T20:22:53.990Z,14.40
2018-06-22T20:25:28.142Z,14.40
2018-06-22T20:27:56.962Z,14.40
2018-06-22T20:30:26.008Z,14.40
2018-06-22T20:32:54.865Z,14.40
2018-06-22T20:35:28.794Z,14.30
2018-06-22T20:39:02.467Z,14.30
2018-06-22T20:41:36.551Z,14.30
2018-06-22T20:44:10.754Z,14.20
2018-06-22T20:46:45.011Z,14.10
2018-06-22T20:49:19.005Z,14.00
2018-06-22T20:51:47.846Z,14.00
2018-06-22T20:54:16.652Z,14.00
2018-06-22T20:56:45.483Z,13.90
2018-06-22T20:59:14.290Z,13.90
2018-06-22T21:01:43.090Z,13.90
2018-06-22T21:04:11.940Z,13.90
2018-06-22T21:06:40.844Z,14.00
2018-06-22T21:09:10.559Z,14.00
2018-06-22T21:11:39.516Z,14.00
2018-06-22T21:14:08.512Z,14.00
2018-06-22T21:16:37.886Z,14.00
2018-06-22T21:19:06.708Z,14.00
2018-06-22T21:21:40.983Z,14.00
2018-06-22T21:24:10.055Z,14.00
2018-06-22T21:26:38.934Z,14.00
2018-06-22T21:29:13.190Z,14.00
2018-06-22T21:31:47.276Z,14.00
2018-06-22T21:34:21.421Z,14.00
2018-06-22T21:36:55.548Z,14.00
2018-06-22T21:39:24.420Z,14.00
2018-06-22T21:41:53.224Z,14.00
2018-06-22T21:44:22.037Z,14.00
2018-06-22T21:46:50.874Z,14.10
2018-06-22T21:49:19.857Z,14.10
2018-06-22T21:51:48.792Z,14.10
2018-06-22T21:54:17.606Z,14.10
2018-06-22T21:56:46.478Z,14.10
2018-06-22T21:59:15.290Z,14.10
2018-06-22T22:01:45.240Z,14.10
2018-06-22T22:04:14.025Z,14.10
2018-06-22T22:06:42.934Z,14.10
2018-06-22T22:09:11.830Z,14.10
2018-06-22T22:11:45.976Z,14.00
2018-06-22T22:14:14.722Z,14.00
2018-06-22T22:16:43.619Z,14.00
2018-06-22T22:19:12.444Z,14.00
2018-06-22T22:21:41.498Z,14.00
2018-06-22T22:24:10.392Z,14.00
2018-06-22T22:26:39.312Z,14.00
2018-06-22T22:29:10.325Z,14.00
2018-06-22T22:31:39.392Z,14.00
2018-06-22T22:34:08.246Z,14.00
2018-06-22T22:36:37.107Z,14.00
2018-06-22T22:39:07.446Z,14.00
2018-06-22T22:41:36.829Z,14.00
2018-06-22T22:44:05.719Z,14.00
2018-06-22T22:46:34.733Z,14.00
2018-06-22T22:49:03.974Z,14.00
2018-06-22T22:51:32.884Z,14.00
2018-06-22T22:54:01.931Z,14.00
2018-06-22T22:56:30.813Z,14.00
2018-06-22T22:58:59.704Z,14.00
2018-06-22T23:01:28.538Z,13.90
2018-06-22T23:03:57.474Z,13.90
2018-06-22T23:06:26.372Z,13.90
2018-06-22T23:08:55.194Z,13.80
2018-06-22T23:11:24.150Z,13.80
2018-06-22T23:13:52.953Z,13.80
2018-06-22T23:16:21.766Z,13.80
2018-06-22T23:18:50.646Z,13.70
2018-06-22T23:21:19.427Z,13.70
2018-06-22T23:23:48.190Z,13.70
2018-06-22T23:26:17.089Z,13.60
2018-06-22T23:28:45.830Z,13.50
2018-06-22T23:31:14.768Z,13.50
2018-06-22T23:33:43.670Z,13.50
2018-06-22T23:36:12.451Z,13.40
2018-06-22T23:38:41.396Z,13.40
2018-06-22T23:41:10.309Z,13.30
2018-06-22T23:43:39.146Z,13.20
2018-06-22T23:46:08.187Z,13.10
2018-06-22T23:48:37.017Z,13.10
2018-06-22T23:51:06.073Z,13.00
2018-06-22T23:53:34.882Z,13.00
2018-06-22T23:56:03.780Z,12.90
2018-06-22T23:58:32.600Z,12.90
